Terminal Aerodrome Forecast
Issued by NWS Newport/Morehead City, NC

Home | Current Version | Previous Version | Text Only | Print | Product List | Glossary On
Versions: 1 2 3 4 5 6 7 8 9 10 11 12 13 14 15
184
FTUS42 KMHX 200531
TAFEWN
TAF
KEWN 200531Z 2006/2106 18008KT 5SM SHRA SCT006 BKN025
     FM200900 19007KT 4SM SHRA SCT006 BKN014
     FM201200 20007KT 4SM SHRA VCTS SCT006 BKN035CB
     FM201800 20009G14KT P6SM OVC040=

USA.gov is the U.S. government's official web portal to all federal, state and local government web resources and services.